sensor_id;sensor_type;location;lat;lon;timestamp;P1;durP1;ratioP1;P2;durP2;ratioP2
49722;SDS011;43484;43.608;1.458;2022-11-15T00:00:51;5.68;;;2.35;;
49722;SDS011;43484;43.608;1.458;2022-11-15T00:03:20;4.07;;;2.10;;
49722;SDS011;43484;43.608;1.458;2022-11-15T00:05:48;4.45;;;2.08;;
49722;SDS011;43484;43.608;1.458;2022-11-15T00:08:15;4.35;;;2.40;;
49722;SDS011;43484;43.608;1.458;2022-11-15T00:10:42;4.45;;;2.03;;
49722;SDS011;43484;43.608;1.458;2022-11-15T00:13:10;4.72;;;1.42;;
49722;SDS011;43484;43.608;1.458;2022-11-15T00:15:39;4.30;;;2.08;;
49722;SDS011;43484;43.608;1.458;2022-11-15T00:18:11;4.15;;;1.80;;
49722;SDS011;43484;43.608;1.458;2022-11-15T00:20:39;3.78;;;1.80;;
49722;SDS011;43484;43.608;1.458;2022-11-15T00:23:06;4.70;;;1.83;;
49722;SDS011;43484;43.608;1.458;2022-11-15T00:25:33;4.63;;;2.30;;
49722;SDS011;43484;43.608;1.458;2022-11-15T00:28:00;6.57;;;5.30;;
49722;SDS011;43484;43.608;1.458;2022-11-15T00:30:27;9.77;;;7.18;;
49722;SDS011;43484;43.608;1.458;2022-11-15T00:32:54;15.02;;;11.90;;
49722;SDS011;43484;43.608;1.458;2022-11-15T00:35:21;13.38;;;12.07;;
49722;SDS011;43484;43.608;1.458;2022-11-15T00:37:48;16.20;;;13.43;;
49722;SDS011;43484;43.608;1.458;2022-11-15T00:40:15;12.18;;;10.93;;
49722;SDS011;43484;43.608;1.458;2022-11-15T00:42:41;11.65;;;9.55;;
49722;SDS011;43484;43.608;1.458;2022-11-15T00:45:08;7.93;;;7.10;;
49722;SDS011;43484;43.608;1.458;2022-11-15T00:47:35;5.80;;;5.20;;
49722;SDS011;43484;43.608;1.458;2022-11-15T00:50:02;7.57;;;4.20;;
49722;SDS011;43484;43.608;1.458;2022-11-15T00:52:29;3.10;;;2.72;;
49722;SDS011;43484;43.608;1.458;2022-11-15T00:54:55;3.28;;;2.58;;
49722;SDS011;43484;43.608;1.458;2022-11-15T00:57:22;4.13;;;2.45;;
49722;SDS011;43484;43.608;1.458;2022-11-15T00:59:49;3.15;;;2.65;;
49722;SDS011;43484;43.608;1.458;2022-11-15T01:02:16;2.75;;;2.35;;
49722;SDS011;43484;43.608;1.458;2022-11-15T01:04:42;4.30;;;2.63;;
49722;SDS011;43484;43.608;1.458;2022-11-15T01:07:09;6.40;;;2.95;;
49722;SDS011;43484;43.608;1.458;2022-11-15T01:09:35;6.85;;;3.05;;
49722;SDS011;43484;43.608;1.458;2022-11-15T01:12:02;6.72;;;3.38;;
49722;SDS011;43484;43.608;1.458;2022-11-15T01:14:29;4.18;;;2.70;;
49722;SDS011;43484;43.608;1.458;2022-11-15T01:16:56;4.15;;;3.03;;
49722;SDS011;43484;43.608;1.458;2022-11-15T01:19:22;6.07;;;3.63;;
49722;SDS011;43484;43.608;1.458;2022-11-15T01:21:49;8.55;;;3.40;;
49722;SDS011;43484;43.608;1.458;2022-11-15T01:24:16;6.07;;;3.58;;
49722;SDS011;43484;43.608;1.458;2022-11-15T01:26:43;6.85;;;3.38;;
49722;SDS011;43484;43.608;1.458;2022-11-15T01:29:10;5.63;;;3.80;;
49722;SDS011;43484;43.608;1.458;2022-11-15T01:31:36;7.43;;;3.72;;
49722;SDS011;43484;43.608;1.458;2022-11-15T01:34:04;9.20;;;4.40;;
49722;SDS011;43484;43.608;1.458;2022-11-15T01:36:30;9.05;;;3.88;;
49722;SDS011;43484;43.608;1.458;2022-11-15T01:38:57;6.85;;;3.55;;
49722;SDS011;43484;43.608;1.458;2022-11-15T01:41:25;5.22;;;4.20;;
49722;SDS011;43484;43.608;1.458;2022-11-15T01:43:55;6.97;;;4.50;;
49722;SDS011;43484;43.608;1.458;2022-11-15T01:46:35;4.57;;;3.63;;
49722;SDS011;43484;43.608;1.458;2022-11-15T01:49:05;8.95;;;4.57;;
49722;SDS011;43484;43.608;1.458;2022-11-15T01:51:39;6.78;;;3.47;;
49722;SDS011;43484;43.608;1.458;2022-11-15T01:54:06;8.05;;;3.80;;
49722;SDS011;43484;43.608;1.458;2022-11-15T01:56:41;11.07;;;4.32;;
49722;SDS011;43484;43.608;1.458;2022-11-15T01:59:12;4.20;;;3.80;;
49722;SDS011;43484;43.608;1.458;2022-11-15T02:01:39;7.90;;;4.57;;
49722;SDS011;43484;43.608;1.458;2022-11-15T02:04:09;7.25;;;3.95;;
49722;SDS011;43484;43.608;1.458;2022-11-15T02:06:37;7.90;;;4.30;;
49722;SDS011;43484;43.608;1.458;2022-11-15T02:09:05;7.47;;;4.00;;
49722;SDS011;43484;43.608;1.458;2022-11-15T02:11:32;7.90;;;4.38;;
49722;SDS011;43484;43.608;1.458;2022-11-15T02:13:59;7.28;;;3.55;;
49722;SDS011;43484;43.608;1.458;2022-11-15T02:16:35;7.18;;;4.75;;
49722;SDS011;43484;43.608;1.458;2022-11-15T02:19:20;7.38;;;4.13;;
49722;SDS011;43484;43.608;1.458;2022-11-15T02:25:03;6.82;;;4.30;;
49722;SDS011;43484;43.608;1.458;2022-11-15T02:33:21;7.75;;;4.80;;
49722;SDS011;43484;43.608;1.458;2022-11-15T02:36:15;5.88;;;3.72;;
49722;SDS011;43484;43.608;1.458;2022-11-15T02:41:30;7.75;;;4.55;;
49722;SDS011;43484;43.608;1.458;2022-11-15T02:44:01;5.88;;;4.28;;
49722;SDS011;43484;43.608;1.458;2022-11-15T02:46:37;7.72;;;4.18;;
49722;SDS011;43484;43.608;1.458;2022-11-15T02:49:28;8.48;;;4.50;;
49722;SDS011;43484;43.608;1.458;2022-11-15T02:51:57;9.20;;;4.60;;
49722;SDS011;43484;43.608;1.458;2022-11-15T02:54:25;10.07;;;4.90;;
49722;SDS011;43484;43.608;1.458;2022-11-15T02:56:53;7.75;;;4.25;;
49722;SDS011;43484;43.608;1.458;2022-11-15T02:59:35;5.65;;;4.03;;
49722;SDS011;43484;43.608;1.458;2022-11-15T03:04:58;7.53;;;4.90;;
49722;SDS011;43484;43.608;1.458;2022-11-15T03:08:10;9.25;;;4.35;;
49722;SDS011;43484;43.608;1.458;2022-11-15T03:13:36;10.05;;;4.55;;
49722;SDS011;43484;43.608;1.458;2022-11-15T03:16:39;10.10;;;4.63;;
49722;SDS011;43484;43.608;1.458;2022-11-15T03:21:46;14.55;;;4.70;;
49722;SDS011;43484;43.608;1.458;2022-11-15T03:24:15;8.65;;;4.18;;
49722;SDS011;43484;43.608;1.458;2022-11-15T03:26:51;9.18;;;4.35;;
49722;SDS011;43484;43.608;1.458;2022-11-15T03:29:22;12.20;;;4.45;;
49722;SDS011;43484;43.608;1.458;2022-11-15T03:31:55;9.20;;;4.50;;
49722;SDS011;43484;43.608;1.458;2022-11-15T03:36:59;11.95;;;4.53;;
49722;SDS011;43484;43.608;1.458;2022-11-15T03:39:26;4.63;;;4.00;;
49722;SDS011;43484;43.608;1.458;2022-11-15T03:42:04;6.50;;;4.18;;
49722;SDS011;43484;43.608;1.458;2022-11-15T03:47:20;8.60;;;4.13;;
49722;SDS011;43484;43.608;1.458;2022-11-15T03:49:56;10.73;;;4.20;;
49722;SDS011;43484;43.608;1.458;2022-11-15T03:52:25;7.43;;;3.60;;
49722;SDS011;43484;43.608;1.458;2022-11-15T03:54:57;9.35;;;4.10;;
49722;SDS011;43484;43.608;1.458;2022-11-15T03:57:27;12.30;;;4.40;;
49722;SDS011;43484;43.608;1.458;2022-11-15T03:59:54;6.30;;;3.40;;
49722;SDS011;43484;43.608;1.458;2022-11-15T04:02:20;10.38;;;4.40;;
49722;SDS011;43484;43.608;1.458;2022-11-15T04:04:47;10.13;;;4.30;;
49722;SDS011;43484;43.608;1.458;2022-11-15T04:07:13;9.57;;;4.35;;
49722;SDS011;43484;43.608;1.458;2022-11-15T04:09:40;7.05;;;3.85;;
49722;SDS011;43484;43.608;1.458;2022-11-15T04:12:25;13.48;;;5.63;;
49722;SDS011;43484;43.608;1.458;2022-11-15T04:15:03;15.98;;;5.40;;
49722;SDS011;43484;43.608;1.458;2022-11-15T04:17:46;8.13;;;5.13;;
49722;SDS011;43484;43.608;1.458;2022-11-15T04:20:20;7.40;;;4.22;;
49722;SDS011;43484;43.608;1.458;2022-11-15T04:23:11;17.15;;;4.65;;
49722;SDS011;43484;43.608;1.458;2022-11-15T04:26:03;10.43;;;5.28;;
49722;SDS011;43484;43.608;1.458;2022-11-15T04:28:33;10.75;;;5.13;;
49722;SDS011;43484;43.608;1.458;2022-11-15T04:31:00;11.10;;;4.90;;
49722;SDS011;43484;43.608;1.458;2022-11-15T04:33:26;9.52;;;4.38;;
49722;SDS011;43484;43.608;1.458;2022-11-15T04:35:53;7.57;;;4.43;;
49722;SDS011;43484;43.608;1.458;2022-11-15T04:38:38;10.80;;;5.00;;
49722;SDS011;43484;43.608;1.458;2022-11-15T04:41:05;7.97;;;4.80;;
49722;SDS011;43484;43.608;1.458;2022-11-15T04:43:31;12.18;;;5.07;;
49722;SDS011;43484;43.608;1.458;2022-11-15T04:45:58;10.05;;;4.68;;
49722;SDS011;43484;43.608;1.458;2022-11-15T04:48:25;8.40;;;5.60;;
49722;SDS011;43484;43.608;1.458;2022-11-15T04:50:51;15.25;;;5.35;;
49722;SDS011;43484;43.608;1.458;2022-11-15T04:53:18;8.65;;;5.28;;
49722;SDS011;43484;43.608;1.458;2022-11-15T04:55:45;10.18;;;5.30;;
49722;SDS011;43484;43.608;1.458;2022-11-15T04:58:12;10.15;;;5.63;;
49722;SDS011;43484;43.608;1.458;2022-11-15T05:00:39;14.90;;;5.80;;
49722;SDS011;43484;43.608;1.458;2022-11-15T05:03:06;15.02;;;5.82;;
49722;SDS011;43484;43.608;1.458;2022-11-15T05:05:51;13.70;;;5.55;;
49722;SDS011;43484;43.608;1.458;2022-11-15T05:08:18;18.42;;;6.68;;
49722;SDS011;43484;43.608;1.458;2022-11-15T05:10:44;12.60;;;5.60;;
49722;SDS011;43484;43.608;1.458;2022-11-15T05:13:11;10.25;;;6.30;;
49722;SDS011;43484;43.608;1.458;2022-11-15T05:15:37;14.48;;;5.65;;
49722;SDS011;43484;43.608;1.458;2022-11-15T05:18:04;11.45;;;5.75;;
49722;SDS011;43484;43.608;1.458;2022-11-15T05:20:30;10.18;;;5.90;;
49722;SDS011;43484;43.608;1.458;2022-11-15T05:22:57;13.50;;;6.20;;
49722;SDS011;43484;43.608;1.458;2022-11-15T05:25:24;14.38;;;6.93;;
49722;SDS011;43484;43.608;1.458;2022-11-15T05:27:51;14.40;;;6.32;;
49722;SDS011;43484;43.608;1.458;2022-11-15T05:30:17;14.20;;;6.72;;
49722;SDS011;43484;43.608;1.458;2022-11-15T05:32:44;13.93;;;6.60;;
49722;SDS011;43484;43.608;1.458;2022-11-15T05:35:22;12.35;;;6.38;;
49722;SDS011;43484;43.608;1.458;2022-11-15T05:37:57;15.43;;;6.70;;
49722;SDS011;43484;43.608;1.458;2022-11-15T05:40:23;11.77;;;6.78;;
49722;SDS011;43484;43.608;1.458;2022-11-15T05:42:50;15.52;;;6.50;;
49722;SDS011;43484;43.608;1.458;2022-11-15T05:45:17;12.98;;;6.28;;
49722;SDS011;43484;43.608;1.458;2022-11-15T05:47:51;18.75;;;6.47;;
49722;SDS011;43484;43.608;1.458;2022-11-15T05:50:21;16.30;;;6.80;;
49722;SDS011;43484;43.608;1.458;2022-11-15T05:52:47;14.75;;;6.28;;
49722;SDS011;43484;43.608;1.458;2022-11-15T05:55:14;15.32;;;6.70;;
49722;SDS011;43484;43.608;1.458;2022-11-15T05:57:41;19.75;;;8.15;;
49722;SDS011;43484;43.608;1.458;2022-11-15T06:00:08;16.45;;;8.57;;
49722;SDS011;43484;43.608;1.458;2022-11-15T06:02:36;20.02;;;8.07;;
49722;SDS011;43484;43.608;1.458;2022-11-15T06:05:02;15.05;;;7.65;;
49722;SDS011;43484;43.608;1.458;2022-11-15T06:07:29;15.30;;;7.47;;
49722;SDS011;43484;43.608;1.458;2022-11-15T06:09:56;18.10;;;8.75;;
49722;SDS011;43484;43.608;1.458;2022-11-15T06:12:23;16.48;;;8.65;;
49722;SDS011;43484;43.608;1.458;2022-11-15T06:14:49;14.63;;;7.85;;
49722;SDS011;43484;43.608;1.458;2022-11-15T06:17:16;16.50;;;8.35;;
49722;SDS011;43484;43.608;1.458;2022-11-15T06:19:42;21.83;;;9.15;;
49722;SDS011;43484;43.608;1.458;2022-11-15T06:22:09;19.48;;;9.05;;
49722;SDS011;43484;43.608;1.458;2022-11-15T06:24:35;20.00;;;9.32;;
49722;SDS011;43484;43.608;1.458;2022-11-15T06:27:02;16.65;;;7.65;;
49722;SDS011;43484;43.608;1.458;2022-11-15T06:29:29;23.42;;;8.80;;
49722;SDS011;43484;43.608;1.458;2022-11-15T06:31:55;17.75;;;7.65;;
49722;SDS011;43484;43.608;1.458;2022-11-15T06:34:22;21.98;;;7.75;;
49722;SDS011;43484;43.608;1.458;2022-11-15T06:36:48;16.50;;;7.68;;
49722;SDS011;43484;43.608;1.458;2022-11-15T06:39:15;14.77;;;7.90;;
49722;SDS011;43484;43.608;1.458;2022-11-15T06:41:41;14.02;;;7.90;;
49722;SDS011;43484;43.608;1.458;2022-11-15T06:44:08;21.52;;;7.45;;
49722;SDS011;43484;43.608;1.458;2022-11-15T06:46:35;14.73;;;7.88;;
49722;SDS011;43484;43.608;1.458;2022-11-15T06:49:01;17.17;;;7.00;;
49722;SDS011;43484;43.608;1.458;2022-11-15T06:51:34;17.83;;;7.65;;
49722;SDS011;43484;43.608;1.458;2022-11-15T06:54:01;18.83;;;8.27;;
49722;SDS011;43484;43.608;1.458;2022-11-15T06:56:27;17.45;;;7.65;;
49722;SDS011;43484;43.608;1.458;2022-11-15T06:58:55;13.02;;;7.70;;
49722;SDS011;43484;43.608;1.458;2022-11-15T07:01:21;23.67;;;8.15;;
49722;SDS011;43484;43.608;1.458;2022-11-15T07:03:48;18.05;;;7.53;;
49722;SDS011;43484;43.608;1.458;2022-11-15T07:06:15;12.88;;;7.30;;
49722;SDS011;43484;43.608;1.458;2022-11-15T07:08:42;14.82;;;7.60;;
49722;SDS011;43484;43.608;1.458;2022-11-15T07:11:09;18.92;;;7.50;;
49722;SDS011;43484;43.608;1.458;2022-11-15T07:13:36;14.57;;;7.05;;
49722;SDS011;43484;43.608;1.458;2022-11-15T07:16:04;13.52;;;7.45;;
49722;SDS011;43484;43.608;1.458;2022-11-15T07:18:35;18.20;;;7.53;;
49722;SDS011;43484;43.608;1.458;2022-11-15T07:21:03;14.52;;;6.88;;
49722;SDS011;43484;43.608;1.458;2022-11-15T07:23:30;16.58;;;6.80;;
49722;SDS011;43484;43.608;1.458;2022-11-15T07:25:58;22.38;;;8.07;;
49722;SDS011;43484;43.608;1.458;2022-11-15T07:28:25;17.13;;;7.38;;
49722;SDS011;43484;43.608;1.458;2022-11-15T07:30:53;19.55;;;7.30;;
49722;SDS011;43484;43.608;1.458;2022-11-15T07:33:19;15.30;;;7.35;;
49722;SDS011;43484;43.608;1.458;2022-11-15T07:35:46;20.55;;;6.07;;
49722;SDS011;43484;43.608;1.458;2022-11-15T07:38:16;16.85;;;9.35;;
49722;SDS011;43484;43.608;1.458;2022-11-15T07:40:46;14.10;;;6.95;;
49722;SDS011;43484;43.608;1.458;2022-11-15T07:43:14;18.23;;;7.47;;
49722;SDS011;43484;43.608;1.458;2022-11-15T07:45:44;12.18;;;5.28;;
49722;SDS011;43484;43.608;1.458;2022-11-15T07:48:11;16.83;;;5.70;;
49722;SDS011;43484;43.608;1.458;2022-11-15T07:50:41;10.18;;;5.38;;
49722;SDS011;43484;43.608;1.458;2022-11-15T07:53:09;12.43;;;5.32;;
49722;SDS011;43484;43.608;1.458;2022-11-15T07:55:36;12.77;;;5.75;;
49722;SDS011;43484;43.608;1.458;2022-11-15T07:58:04;16.70;;;6.10;;
49722;SDS011;43484;43.608;1.458;2022-11-15T08:00:32;15.00;;;5.80;;
49722;SDS011;43484;43.608;1.458;2022-11-15T08:03:03;12.25;;;5.25;;
49722;SDS011;43484;43.608;1.458;2022-11-15T08:05:34;18.42;;;5.32;;
49722;SDS011;43484;43.608;1.458;2022-11-15T08:08:02;18.55;;;6.38;;
49722;SDS011;43484;43.608;1.458;2022-11-15T08:10:29;13.68;;;6.20;;
49722;SDS011;43484;43.608;1.458;2022-11-15T08:13:01;13.20;;;5.85;;
49722;SDS011;43484;43.608;1.458;2022-11-15T08:15:30;16.00;;;5.72;;
49722;SDS011;43484;43.608;1.458;2022-11-15T08:17:57;18.52;;;6.30;;
49722;SDS011;43484;43.608;1.458;2022-11-15T08:20:27;17.65;;;5.88;;
49722;SDS011;43484;43.608;1.458;2022-11-15T08:22:56;18.90;;;6.95;;
49722;SDS011;43484;43.608;1.458;2022-11-15T08:25:24;25.10;;;5.57;;
49722;SDS011;43484;43.608;1.458;2022-11-15T08:27:52;16.88;;;5.80;;
49722;SDS011;43484;43.608;1.458;2022-11-15T08:30:22;13.55;;;6.38;;
49722;SDS011;43484;43.608;1.458;2022-11-15T08:32:50;18.50;;;5.82;;
49722;SDS011;43484;43.608;1.458;2022-11-15T08:35:18;19.50;;;6.55;;
49722;SDS011;43484;43.608;1.458;2022-11-15T08:37:53;17.60;;;6.53;;
49722;SDS011;43484;43.608;1.458;2022-11-15T08:40:20;19.77;;;5.70;;
49722;SDS011;43484;43.608;1.458;2022-11-15T08:42:48;16.15;;;5.57;;
49722;SDS011;43484;43.608;1.458;2022-11-15T08:45:15;12.90;;;5.70;;
49722;SDS011;43484;43.608;1.458;2022-11-15T08:47:41;19.38;;;6.78;;
49722;SDS011;43484;43.608;1.458;2022-11-15T08:50:08;16.73;;;6.57;;
49722;SDS011;43484;43.608;1.458;2022-11-15T08:52:35;17.65;;;6.10;;
49722;SDS011;43484;43.608;1.458;2022-11-15T08:55:02;15.25;;;6.47;;
49722;SDS011;43484;43.608;1.458;2022-11-15T08:57:29;19.73;;;6.25;;
49722;SDS011;43484;43.608;1.458;2022-11-15T08:59:56;14.65;;;6.07;;
49722;SDS011;43484;43.608;1.458;2022-11-15T09:02:23;18.70;;;6.70;;
49722;SDS011;43484;43.608;1.458;2022-11-15T09:04:49;17.42;;;6.18;;
49722;SDS011;43484;43.608;1.458;2022-11-15T09:07:16;15.88;;;5.75;;
49722;SDS011;43484;43.608;1.458;2022-11-15T09:09:43;17.40;;;6.32;;
49722;SDS011;43484;43.608;1.458;2022-11-15T09:12:09;18.08;;;6.70;;
49722;SDS011;43484;43.608;1.458;2022-11-15T09:14:36;11.25;;;6.45;;
49722;SDS011;43484;43.608;1.458;2022-11-15T09:17:03;17.67;;;5.80;;
49722;SDS011;43484;43.608;1.458;2022-11-15T09:19:30;12.13;;;5.32;;
49722;SDS011;43484;43.608;1.458;2022-11-15T09:21:56;12.65;;;5.60;;
49722;SDS011;43484;43.608;1.458;2022-11-15T09:24:23;16.27;;;6.93;;
49722;SDS011;43484;43.608;1.458;2022-11-15T09:26:50;12.57;;;5.70;;
49722;SDS011;43484;43.608;1.458;2022-11-15T09:29:17;13.57;;;5.53;;
49722;SDS011;43484;43.608;1.458;2022-11-15T09:31:45;13.32;;;5.90;;
49722;SDS011;43484;43.608;1.458;2022-11-15T09:34:11;14.48;;;6.53;;
49722;SDS011;43484;43.608;1.458;2022-11-15T09:36:38;12.00;;;6.47;;
49722;SDS011;43484;43.608;1.458;2022-11-15T09:39:04;10.18;;;5.50;;
49722;SDS011;43484;43.608;1.458;2022-11-15T09:41:34;15.18;;;6.53;;
49722;SDS011;43484;43.608;1.458;2022-11-15T09:46:57;14.68;;;5.85;;
49722;SDS011;43484;43.608;1.458;2022-11-15T09:49:25;22.92;;;6.63;;
49722;SDS011;43484;43.608;1.458;2022-11-15T09:51:53;23.73;;;6.70;;
49722;SDS011;43484;43.608;1.458;2022-11-15T09:54:39;15.52;;;5.15;;
49722;SDS011;43484;43.608;1.458;2022-11-15T10:03:00;11.48;;;5.10;;
49722;SDS011;43484;43.608;1.458;2022-11-15T10:05:37;14.00;;;5.30;;
49722;SDS011;43484;43.608;1.458;2022-11-15T10:08:56;12.27;;;5.50;;
49722;SDS011;43484;43.608;1.458;2022-11-15T10:11:08;14.98;;;5.63;;
49722;SDS011;43484;43.608;1.458;2022-11-15T10:13:58;10.45;;;5.88;;
49722;SDS011;43484;43.608;1.458;2022-11-15T10:24:30;11.43;;;5.35;;
49722;SDS011;43484;43.608;1.458;2022-11-15T10:27:01;9.10;;;4.85;;
49722;SDS011;43484;43.608;1.458;2022-11-15T10:29:35;15.25;;;4.40;;
49722;SDS011;43484;43.608;1.458;2022-11-15T10:32:09;10.13;;;4.88;;
49722;SDS011;43484;43.608;1.458;2022-11-15T10:34:40;11.55;;;5.32;;
49722;SDS011;43484;43.608;1.458;2022-11-15T10:37:07;10.50;;;4.40;;
49722;SDS011;43484;43.608;1.458;2022-11-15T10:39:34;19.52;;;5.07;;
49722;SDS011;43484;43.608;1.458;2022-11-15T10:44:54;18.17;;;4.93;;
49722;SDS011;43484;43.608;1.458;2022-11-15T10:47:24;11.23;;;3.88;;
49722;SDS011;43484;43.608;1.458;2022-11-15T10:52:27;20.23;;;4.93;;
49722;SDS011;43484;43.608;1.458;2022-11-15T10:55:00;8.90;;;4.22;;
49722;SDS011;43484;43.608;1.458;2022-11-15T10:57:30;26.10;;;4.70;;
49722;SDS011;43484;43.608;1.458;2022-11-15T11:00:06;15.07;;;4.30;;
49722;SDS011;43484;43.608;1.458;2022-11-15T11:03:04;14.63;;;4.65;;
49722;SDS011;43484;43.608;1.458;2022-11-15T11:05:36;9.65;;;4.35;;
49722;SDS011;43484;43.608;1.458;2022-11-15T11:10:37;11.55;;;5.32;;
49722;SDS011;43484;43.608;1.458;2022-11-15T11:13:28;14.32;;;4.43;;
49722;SDS011;43484;43.608;1.458;2022-11-15T11:21:21;8.00;;;3.75;;
49722;SDS011;43484;43.608;1.458;2022-11-15T11:24:16;13.75;;;4.72;;
49722;SDS011;43484;43.608;1.458;2022-11-15T11:34:55;10.68;;;4.95;;
49722;SDS011;43484;43.608;1.458;2022-11-15T11:40:24;8.98;;;4.28;;
49722;SDS011;43484;43.608;1.458;2022-11-15T11:48:48;17.05;;;4.40;;
49722;SDS011;43484;43.608;1.458;2022-11-15T11:54:03;11.00;;;4.05;;
49722;SDS011;43484;43.608;1.458;2022-11-15T11:56:51;10.80;;;4.07;;
49722;SDS011;43484;43.608;1.458;2022-11-15T12:02:17;9.95;;;4.22;;
49722;SDS011;43484;43.608;1.458;2022-11-15T12:04:52;12.82;;;4.75;;
49722;SDS011;43484;43.608;1.458;2022-11-15T12:07:38;14.13;;;4.68;;
49722;SDS011;43484;43.608;1.458;2022-11-15T12:15:16;18.10;;;5.05;;
49722;SDS011;43484;43.608;1.458;2022-11-15T12:20:17;11.43;;;4.15;;
49722;SDS011;43484;43.608;1.458;2022-11-15T12:25:42;10.98;;;5.07;;
49722;SDS011;43484;43.608;1.458;2022-11-15T12:28:15;15.55;;;5.07;;
49722;SDS011;43484;43.608;1.458;2022-11-15T12:30:51;12.18;;;4.32;;
49722;SDS011;43484;43.608;1.458;2022-11-15T12:33:32;19.88;;;5.60;;
49722;SDS011;43484;43.608;1.458;2022-11-15T12:36:51;12.80;;;5.00;;
49722;SDS011;43484;43.608;1.458;2022-11-15T12:41:31;9.00;;;4.68;;
49722;SDS011;43484;43.608;1.458;2022-11-15T12:44:03;14.90;;;5.55;;
49722;SDS011;43484;43.608;1.458;2022-11-15T12:49:08;8.13;;;4.22;;
49722;SDS011;43484;43.608;1.458;2022-11-15T13:22:47;45.85;;;6.38;;
49722;SDS011;43484;43.608;1.458;2022-11-15T13:27:59;19.23;;;4.43;;
49722;SDS011;43484;43.608;1.458;2022-11-15T13:30:33;7.70;;;5.20;;
49722;SDS011;43484;43.608;1.458;2022-11-15T13:33:01;11.85;;;4.72;;
49722;SDS011;43484;43.608;1.458;2022-11-15T13:35:36;13.00;;;4.88;;
49722;SDS011;43484;43.608;1.458;2022-11-15T13:38:06;18.80;;;5.13;;
49722;SDS011;43484;43.608;1.458;2022-11-15T13:40:36;17.05;;;5.22;;
49722;SDS011;43484;43.608;1.458;2022-11-15T13:46:13;10.77;;;4.57;;
49722;SDS011;43484;43.608;1.458;2022-11-15T13:48:40;11.50;;;4.90;;
49722;SDS011;43484;43.608;1.458;2022-11-15T13:51:16;11.70;;;4.70;;
49722;SDS011;43484;43.608;1.458;2022-11-15T13:53:51;12.73;;;5.30;;
49722;SDS011;43484;43.608;1.458;2022-11-15T13:56:22;9.80;;;4.07;;
49722;SDS011;43484;43.608;1.458;2022-11-15T13:58:49;16.33;;;5.15;;
49722;SDS011;43484;43.608;1.458;2022-11-15T14:01:17;12.80;;;4.47;;
49722;SDS011;43484;43.608;1.458;2022-11-15T14:04:04;9.50;;;4.68;;
49722;SDS011;43484;43.608;1.458;2022-11-15T14:06:31;20.33;;;5.00;;
49722;SDS011;43484;43.608;1.458;2022-11-15T14:09:03;8.55;;;4.20;;
49722;SDS011;43484;43.608;1.458;2022-11-15T14:11:36;10.73;;;4.45;;
49722;SDS011;43484;43.608;1.458;2022-11-15T14:16:43;13.95;;;4.43;;
49722;SDS011;43484;43.608;1.458;2022-11-15T14:19:12;18.98;;;6.18;;
49722;SDS011;43484;43.608;1.458;2022-11-15T14:25:23;11.80;;;4.63;;
49722;SDS011;43484;43.608;1.458;2022-11-15T14:30:41;16.33;;;4.35;;
49722;SDS011;43484;43.608;1.458;2022-11-15T14:36:03;11.02;;;5.00;;
49722;SDS011;43484;43.608;1.458;2022-11-15T14:38:30;9.05;;;4.80;;
49722;SDS011;43484;43.608;1.458;2022-11-15T14:40:58;9.32;;;5.15;;
49722;SDS011;43484;43.608;1.458;2022-11-15T14:43:24;15.07;;;4.70;;
49722;SDS011;43484;43.608;1.458;2022-11-15T14:45:51;19.35;;;5.70;;
49722;SDS011;43484;43.608;1.458;2022-11-15T14:48:18;15.40;;;5.18;;
49722;SDS011;43484;43.608;1.458;2022-11-15T14:50:44;12.85;;;4.88;;
49722;SDS011;43484;43.608;1.458;2022-11-15T14:53:15;14.60;;;5.70;;
49722;SDS011;43484;43.608;1.458;2022-11-15T14:55:43;12.82;;;5.72;;
49722;SDS011;43484;43.608;1.458;2022-11-15T14:58:10;12.68;;;4.88;;
49722;SDS011;43484;43.608;1.458;2022-11-15T15:00:38;12.45;;;5.35;;
49722;SDS011;43484;43.608;1.458;2022-11-15T15:03:06;16.50;;;4.75;;
49722;SDS011;43484;43.608;1.458;2022-11-15T15:05:34;10.82;;;4.80;;
49722;SDS011;43484;43.608;1.458;2022-11-15T15:08:03;12.52;;;4.95;;
49722;SDS011;43484;43.608;1.458;2022-11-15T15:10:32;14.35;;;5.05;;
49722;SDS011;43484;43.608;1.458;2022-11-15T15:13:25;16.70;;;6.15;;
49722;SDS011;43484;43.608;1.458;2022-11-15T15:15:52;14.00;;;5.47;;
49722;SDS011;43484;43.608;1.458;2022-11-15T15:18:19;19.30;;;5.65;;
49722;SDS011;43484;43.608;1.458;2022-11-15T15:20:47;12.38;;;5.35;;
49722;SDS011;43484;43.608;1.458;2022-11-15T15:23:20;16.42;;;5.78;;
49722;SDS011;43484;43.608;1.458;2022-11-15T15:25:49;13.55;;;5.55;;
49722;SDS011;43484;43.608;1.458;2022-11-15T15:28:16;10.45;;;5.53;;
49722;SDS011;43484;43.608;1.458;2022-11-15T15:30:43;29.15;;;6.65;;
49722;SDS011;43484;43.608;1.458;2022-11-15T15:33:10;32.78;;;9.18;;
49722;SDS011;43484;43.608;1.458;2022-11-15T15:35:36;49.50;;;10.55;;
49722;SDS011;43484;43.608;1.458;2022-11-15T15:38:04;20.00;;;7.28;;
49722;SDS011;43484;43.608;1.458;2022-11-15T15:40:32;12.82;;;5.32;;
49722;SDS011;43484;43.608;1.458;2022-11-15T15:42:59;22.40;;;6.22;;
49722;SDS011;43484;43.608;1.458;2022-11-15T15:45:27;22.35;;;5.90;;
49722;SDS011;43484;43.608;1.458;2022-11-15T15:47:55;20.25;;;5.85;;
49722;SDS011;43484;43.608;1.458;2022-11-15T15:50:29;21.58;;;5.53;;
49722;SDS011;43484;43.608;1.458;2022-11-15T15:52:59;15.20;;;5.07;;
49722;SDS011;43484;43.608;1.458;2022-11-15T15:55:27;41.75;;;7.05;;
49722;SDS011;43484;43.608;1.458;2022-11-15T15:57:54;27.42;;;5.55;;
49722;SDS011;43484;43.608;1.458;2022-11-15T16:00:22;25.05;;;6.70;;
49722;SDS011;43484;43.608;1.458;2022-11-15T16:02:50;19.55;;;5.50;;
49722;SDS011;43484;43.608;1.458;2022-11-15T16:05:18;15.07;;;5.53;;
49722;SDS011;43484;43.608;1.458;2022-11-15T16:07:45;15.43;;;5.90;;
49722;SDS011;43484;43.608;1.458;2022-11-15T16:12:46;14.73;;;5.50;;
49722;SDS011;43484;43.608;1.458;2022-11-15T16:15:13;20.20;;;5.63;;
49722;SDS011;43484;43.608;1.458;2022-11-15T16:17:41;17.20;;;5.35;;
49722;SDS011;43484;43.608;1.458;2022-11-15T16:22:47;20.10;;;5.20;;
49722;SDS011;43484;43.608;1.458;2022-11-15T16:25:13;17.98;;;5.47;;
49722;SDS011;43484;43.608;1.458;2022-11-15T16:27:40;14.65;;;4.97;;
49722;SDS011;43484;43.608;1.458;2022-11-15T16:30:14;13.70;;;4.97;;
49722;SDS011;43484;43.608;1.458;2022-11-15T16:32:42;14.82;;;5.63;;
49722;SDS011;43484;43.608;1.458;2022-11-15T16:35:10;17.35;;;5.55;;
49722;SDS011;43484;43.608;1.458;2022-11-15T16:37:38;14.85;;;6.40;;
49722;SDS011;43484;43.608;1.458;2022-11-15T16:42:58;53.72;;;8.15;;
49722;SDS011;43484;43.608;1.458;2022-11-15T16:45:28;66.70;;;8.77;;
49722;SDS011;43484;43.608;1.458;2022-11-15T16:47:54;69.65;;;7.57;;
49722;SDS011;43484;43.608;1.458;2022-11-15T16:52:51;30.70;;;5.40;;
49722;SDS011;43484;43.608;1.458;2022-11-15T16:55:18;23.52;;;6.82;;
49722;SDS011;43484;43.608;1.458;2022-11-15T16:57:46;15.32;;;5.97;;
49722;SDS011;43484;43.608;1.458;2022-11-15T17:00:13;10.60;;;5.45;;
49722;SDS011;43484;43.608;1.458;2022-11-15T17:02:42;20.40;;;6.25;;
49722;SDS011;43484;43.608;1.458;2022-11-15T17:05:10;19.13;;;6.13;;
49722;SDS011;43484;43.608;1.458;2022-11-15T17:07:45;11.77;;;6.07;;
49722;SDS011;43484;43.608;1.458;2022-11-15T17:10:17;9.25;;;5.03;;
49722;SDS011;43484;43.608;1.458;2022-11-15T17:12:44;14.75;;;6.35;;
49722;SDS011;43484;43.608;1.458;2022-11-15T17:15:11;11.98;;;5.82;;
49722;SDS011;43484;43.608;1.458;2022-11-15T17:17:39;15.55;;;6.28;;
49722;SDS011;43484;43.608;1.458;2022-11-15T17:20:06;14.65;;;6.07;;
49722;SDS011;43484;43.608;1.458;2022-11-15T17:22:41;19.08;;;6.07;;
49722;SDS011;43484;43.608;1.458;2022-11-15T17:25:08;8.32;;;5.57;;
49722;SDS011;43484;43.608;1.458;2022-11-15T17:27:35;16.60;;;5.63;;